Terminal Aerodrome Forecast
Issued by NWS Sterling, VA

Current Version | Previous Version | Text Only | Print | Product List | Glossary Off
Versions: 1 2 3 4 5 6 7 8 9 10 11 12 13 14 15

945
FTUS41 KLWX 241720
TAFMRB
TAF
KMRB 241720Z 2418/2518 27011G18KT P6SM SCT050 SCT250
     FM242300 29006KT P6SM FEW050 FEW250
     FM250800 00000KT P6SM FEW050 FEW250
     FM251300 28010KT P6SM SCT050=

USA.gov is the U.S. government's official web portal to all federal, state and local government web resources and services.